Time;durP1;ratioP1;P1;durP2;ratioP2;P2;SDS_P1;SDS_P2;PMS_P1;PMS_P2;Temp;Humidity;BMP_temperature;BMP_pressure;BME280_temperature;BME280_humidity;BME280_pressure;Samples;Min_cycle;Max_cycle;Signal;HPM_P1;HPM_P2
2023/03/28 00:01:33;;;;;;;;;8.50;7.50;;;;;9.66;45.25;102253.41;5061789;28;52616;-63
2023/03/28 00:03:58;;;;;;;;;14.00;10.00;;;;;9.65;45.72;102260.41;5062116;28;50771;-63
2023/03/28 00:06:25;;;;;;;;;11.50;8.00;;;;;9.61;45.36;102263.84;5061756;28;54582;-63
2023/03/28 00:08:50;;;;;;;;;6.00;5.00;;;;;9.60;45.64;102267.34;5062212;28;45364;-63
2023/03/28 00:11:20;;;;;;;;;11.50;7.00;;;;;9.58;45.49;102267.31;5061861;28;45300;-63
2023/03/28 00:13:56;;;;;;;;;9.00;6.25;;;;;9.55;45.60;102267.25;5062323;28;45312;-63
2023/03/28 00:16:21;;;;;;;;;13.00;9.25;;;;;9.51;45.50;102254.97;5061704;28;45398;-63
2023/03/28 00:18:49;;;;;;;;;8.50;6.00;;;;;9.48;45.35;102257.53;5061861;28;46144;-63
2023/03/28 00:21:28;;;;;;;;;9.75;8.00;;;;;9.48;45.67;102256.66;5062135;28;45325;-63
2023/03/28 00:23:56;;;;;;;;;6.75;6.50;;;;;9.44;45.58;102268.84;5061978;28;45350;-63
2023/03/28 00:26:25;;;;;;;;;13.75;12.50;;;;;9.42;45.44;102274.06;5062043;28;45233;-63
2023/03/28 00:28:50;;;;;;;;;11.50;8.75;;;;;9.39;45.38;102258.28;5043577;28;46251;-63
2023/03/28 00:31:16;;;;;;;;;9.50;9.50;;;;;9.37;45.50;102265.25;5061512;28;45302;-63
2023/03/28 00:33:42;;;;;;;;;12.00;11.75;;;;;9.34;45.54;102262.56;5062105;28;45331;-63
2023/03/28 00:36:09;;;;;;;;;12.25;12.25;;;;;9.30;45.69;102254.66;5061824;28;45264;-64
2023/03/28 00:38:35;;;;;;;;;13.75;12.00;;;;;9.29;45.57;102250.25;5061601;28;45256;-63
2023/03/28 00:41:00;;;;;;;;;7.75;7.75;;;;;9.20;45.62;102246.63;5061694;28;45256;-64
2023/03/28 00:43:43;;;;;;;;;16.00;11.25;;;;;9.23;45.78;102254.56;5061742;28;45249;-63
2023/03/28 00:46:14;;;;;;;;;13.00;10.25;;;;;9.22;45.56;102259.75;5070612;28;45246;-63
2023/03/28 00:48:50;;;;;;;;;10.25;8.50;;;;;9.18;45.69;102258.84;5071748;28;45423;-63
2023/03/28 00:51:19;;;;;;;;;13.00;9.50;;;;;9.13;45.65;102257.00;5062969;28;45329;-63
2023/03/28 00:53:45;;;;;;;;;6.25;4.75;;;;;9.09;45.48;102250.81;5059100;28;45417;-63
2023/03/28 00:56:16;;;;;;;;;16.75;13.00;;;;;9.11;45.40;102251.72;5061202;28;45325;-63
2023/03/28 00:58:43;;;;;;;;;14.00;12.00;;;;;9.09;45.63;102256.97;5042990;28;46207;-63
2023/03/28 01:01:12;;;;;;;;;7.25;6.50;;;;;9.06;45.75;102258.66;5060829;28;45355;-63
2023/03/28 01:03:40;;;;;;;;;10.75;10.00;;;;;9.05;45.67;102254.25;5061386;28;45607;-63
2023/03/28 01:06:07;;;;;;;;;10.75;6.75;;;;;9.03;46.06;102255.97;5061229;28;45402;-63
2023/03/28 01:08:37;;;;;;;;;9.50;9.00;;;;;9.02;45.81;102249.84;5061010;28;45326;-63
2023/03/28 01:11:03;;;;;;;;;10.00;10.00;;;;;8.99;45.62;102243.66;5061106;28;45437;-63
2023/03/28 01:13:32;;;;;;;;;10.50;6.25;;;;;8.97;45.71;102247.97;5061408;28;45238;-63
2023/03/28 01:15:58;;;;;;;;;8.25;6.00;;;;;8.93;45.89;102245.31;5042714;28;45333;-63
2023/03/28 01:18:24;;;;;;;;;7.00;7.00;;;;;8.91;45.84;102246.16;5042907;28;47297;-63
2023/03/28 01:21:05;;;;;;;;;10.50;8.50;;;;;8.90;45.64;102254.88;5060892;28;45178;-63
2023/03/28 01:23:49;;;;;;;;;10.00;9.50;;;;;8.88;45.67;102249.63;5069796;28;45517;-63
2023/03/28 01:26:31;;;;;;;;;11.50;11.00;;;;;8.85;45.57;102246.94;5080989;28;45548;-63
2023/03/28 01:29:21;;;;;;;;;12.50;10.00;;;;;8.84;45.84;102249.53;5081013;28;45407;-63
2023/03/28 01:32:10;;;;;;;;;12.50;9.50;;;;;8.80;45.82;102252.97;5062683;28;45504;-63
2023/03/28 01:34:56;;;;;;;;;13.00;11.00;;;;;8.77;46.10;102246.81;5081176;28;45319;-63
2023/03/28 01:37:31;;;;;;;;;11.00;8.50;;;;;8.75;45.93;102243.28;5080972;28;45470;-63
2023/03/28 01:40:16;;;;;;;;;9.25;8.00;;;;;8.69;45.70;102232.69;5080833;28;45399;-63
2023/03/28 01:43:06;;;;;;;;;10.00;8.50;;;;;8.70;45.79;102231.81;5080897;28;45272;-63
2023/03/28 01:45:38;;;;;;;;;7.75;7.00;;;;;8.69;45.72;102227.44;5080953;28;45311;-63
2023/03/28 01:48:12;;;;;;;;;9.00;7.75;;;;;8.64;45.99;102213.38;5073547;28;45442;-63
2023/03/28 01:50:46;;;;;;;;;11.75;10.25;;;;;8.65;45.93;102219.50;5079288;28;46217;-63
2023/03/28 01:53:27;;;;;;;;;7.25;6.00;;;;;8.63;46.25;102214.25;5062474;28;45275;-63
2023/03/28 01:56:08;;;;;;;;;6.75;5.75;;;;;8.62;45.92;102215.09;5060623;28;45268;-63
2023/03/28 01:59:21;;;;;;;;;9.75;9.75;;;;;8.61;45.77;102213.31;5059858;28;45362;-63
2023/03/28 02:02:13;;;;;;;;;6.75;6.50;;;;;8.56;46.04;102209.75;5046407;28;46183;-63
2023/03/28 02:04:44;;;;;;;;;7.00;7.00;;;;;8.56;46.00;102201.88;5057139;28;45426;-63
2023/03/28 02:07:11;;;;;;;;;9.25;6.00;;;;;8.56;45.74;102201.88;5060588;28;45391;-63
2023/03/28 02:09:41;;;;;;;;;5.75;4.50;;;;;8.51;45.91;102193.94;5060110;28;45395;-63
2023/03/28 02:12:14;;;;;;;;;11.25;6.75;;;;;8.52;46.02;102193.06;5060340;28;46338;-63
2023/03/28 02:14:43;;;;;;;;;6.00;6.00;;;;;8.50;46.09;102186.03;5059740;28;45364;-63
2023/03/28 02:17:14;;;;;;;;;7.25;7.00;;;;;8.48;46.11;102180.78;5060189;28;45288;-63
2023/03/28 02:19:47;;;;;;;;;9.00;7.00;;;;;8.46;45.99;102182.47;5060052;28;45426;-63
2023/03/28 02:22:28;;;;;;;;;6.75;6.00;;;;;8.45;46.05;102188.53;5059597;28;45328;-63
2023/03/28 02:24:55;;;;;;;;;4.50;4.50;;;;;8.43;46.04;102175.41;5059348;28;45495;-63
2023/03/28 02:27:21;;;;;;;;;9.25;7.00;;;;;8.39;45.98;102160.53;5060135;28;45476;-63
2023/03/28 02:29:53;;;;;;;;;8.25;6.00;;;;;8.41;46.10;102166.63;5041824;28;45360;-63
2023/03/28 02:32:20;;;;;;;;;10.00;7.00;;;;;8.38;46.00;102163.97;5041520;28;48156;-63
2023/03/28 02:34:47;;;;;;;;;8.25;6.50;;;;;8.36;46.21;102159.56;5060037;28;45408;-63
2023/03/28 02:37:53;;;;;;;;;7.00;5.50;;;;;8.35;45.99;102155.19;5025297;28;45286;-63
2023/03/28 02:40:37;;;;;;;;;6.75;5.50;;;;;8.33;46.13;102149.94;5059699;28;45420;-63
2023/03/28 02:43:26;;;;;;;;;7.00;4.25;;;;;8.29;45.96;102142.88;5068310;28;46226;-63
2023/03/28 02:46:17;;;;;;;;;6.25;6.25;;;;;8.29;46.21;102145.50;5079775;28;45585;-63
2023/03/28 02:49:15;;;;;;;;;2.75;2.00;;;;;8.26;46.01;102148.03;5061288;28;45470;-63
2023/03/28 02:51:47;;;;;;;;;9.25;8.25;;;;;8.24;46.31;102145.41;5079811;28;45402;-63
2023/03/28 02:54:26;;;;;;;;;9.25;7.00;;;;;8.25;45.98;102141.03;5071478;28;46110;-63
2023/03/28 02:57:06;;;;;;;;;7.00;6.00;;;;;8.20;46.02;102138.38;5059654;28;45249;-63
2023/03/28 02:59:52;;;;;;;;;5.50;4.75;;;;;8.21;45.96;102140.09;5059198;28;45373;-63
2023/03/28 03:02:20;;;;;;;;;5.50;5.00;;;;;8.21;46.36;102137.47;5067266;28;45327;-63
2023/03/28 03:04:46;;;;;;;;;5.75;5.00;;;;;8.19;46.17;102148.78;5079724;28;45181;-63
2023/03/28 03:07:12;;;;;;;;;5.75;5.00;;;;;8.18;46.05;102139.19;5079877;28;45259;-63
2023/03/28 03:09:39;;;;;;;;;7.25;6.75;;;;;8.15;46.01;102145.25;5079601;28;45237;-63
2023/03/28 03:12:05;;;;;;;;;4.75;4.00;;;;;8.14;46.07;102141.72;5079975;28;45447;-63
2023/03/28 03:14:30;;;;;;;;;4.00;4.00;;;;;8.11;46.06;102133.84;5079504;28;45320;-63
2023/03/28 03:16:56;;;;;;;;;4.00;4.00;;;;;8.12;46.14;102135.56;5079617;28;45391;-63
2023/03/28 03:19:21;;;;;;;;;6.00;6.00;;;;;8.11;45.97;102125.97;5079632;28;45604;-63
2023/03/28 03:21:48;;;;;;;;;4.75;4.75;;;;;8.09;46.32;102125.06;5079797;28;45442;-63
2023/03/28 03:24:14;;;;;;;;;7.00;3.50;;;;;8.07;46.19;102121.53;5079394;28;45277;-63
2023/03/28 03:26:40;;;;;;;;;7.75;6.00;;;;;8.06;46.18;102118.88;5061549;28;45204;-62
2023/03/28 03:29:06;;;;;;;;;7.75;6.75;;;;;8.04;45.99;102115.38;5078465;28;45425;-63
2023/03/28 03:31:32;;;;;;;;;5.50;5.50;;;;;8.04;46.16;102118.84;5060616;28;45536;-63
2023/03/28 03:33:57;;;;;;;;;5.00;3.00;;;;;8.02;46.54;102112.69;5080481;28;45292;-63
2023/03/28 03:36:25;;;;;;;;;6.00;6.00;;;;;8.01;46.31;102102.22;5083207;28;45273;-63
2023/03/28 03:38:51;;;;;;;;;7.00;6.50;;;;;8.00;46.23;102096.09;5082916;28;45325;-63
2023/03/28 03:41:16;;;;;;;;;6.50;4.00;;;;;8.00;46.25;102085.63;5082770;28;45563;-63
2023/03/28 03:43:41;;;;;;;;;5.25;5.00;;;;;7.99;46.34;102089.09;5064671;28;46873;-63
2023/03/28 03:46:07;;;;;;;;;6.00;5.75;;;;;7.97;46.42;102089.09;5073226;28;55524;-63
2023/03/28 03:48:32;;;;;;;;;5.00;5.00;;;;;7.94;46.22;102089.00;5053663;28;45286;-63
2023/03/28 03:50:58;;;;;;;;;7.25;5.50;;;;;7.91;46.43;102091.59;5082758;28;45375;-63
2023/03/28 03:53:23;;;;;;;;;7.25;7.00;;;;;7.90;46.41;102092.44;5081267;28;45426;-63
2023/03/28 03:55:48;;;;;;;;;6.75;5.50;;;;;7.87;46.30;102091.50;5062523;28;45306;-62
2023/03/28 03:58:14;;;;;;;;;3.00;2.75;;;;;7.85;46.57;102083.63;5062482;28;45218;-63
2023/03/28 04:00:39;;;;;;;;;6.75;6.00;;;;;7.86;46.42;102094.94;5044180;28;45307;-63
2023/03/28 04:03:05;;;;;;;;;10.75;9.00;;;;;7.84;46.35;102096.69;5061916;28;45230;-63
2023/03/28 04:05:30;;;;;;;;;6.00;6.00;;;;;7.80;46.55;102091.38;5044387;28;45261;-62
2023/03/28 04:07:58;;;;;;;;;5.25;4.00;;;;;7.81;46.41;102093.13;5044258;28;45660;-62
2023/03/28 04:10:23;;;;;;;;;5.75;5.00;;;;;7.80;46.64;102090.50;5062219;28;45617;-63
2023/03/28 04:12:49;;;;;;;;;4.50;4.50;;;;;7.78;46.38;102087.84;5044322;28;45356;-62
2023/03/28 04:15:14;;;;;;;;;5.75;5.00;;;;;7.75;46.56;102082.56;5061820;28;45407;-63
2023/03/28 04:17:40;;;;;;;;;6.75;6.00;;;;;7.72;46.66;102082.50;5062177;28;45338;-62
2023/03/28 04:20:10;;;;;;;;;5.00;4.00;;;;;7.72;46.69;102092.06;5062150;28;45395;-63
2023/03/28 04:22:35;;;;;;;;;7.50;6.50;;;;;7.71;46.59;102083.34;5043727;28;48072;-63
2023/03/28 04:25:03;;;;;;;;;6.00;6.00;;;;;7.68;46.50;102085.91;5061988;28;45286;-62
2023/03/28 04:27:30;;;;;;;;;7.50;6.00;;;;;7.65;46.69;102081.50;5062047;28;45256;-63
2023/03/28 04:29:55;;;;;;;;;5.25;5.00;;;;;7.65;46.58;102084.09;5062044;28;45557;-62
2023/03/28 04:32:21;;;;;;;;;10.75;7.25;;;;;7.63;46.50;102071.84;5061426;28;46299;-62
2023/03/28 04:34:49;;;;;;;;;10.00;7.25;;;;;7.61;46.51;102081.38;5070334;28;53061;-62
2023/03/28 04:37:16;;;;;;;;;9.25;5.75;;;;;7.59;46.44;102075.28;5066441;28;45258;-63
2023/03/28 04:39:43;;;;;;;;;8.50;6.50;;;;;7.56;46.59;102080.41;5061717;28;45357;-63
2023/03/28 04:42:09;;;;;;;;;6.75;4.25;;;;;7.54;46.58;102069.06;5061495;28;45204;-63
2023/03/28 04:44:34;;;;;;;;;9.00;6.00;;;;;7.50;46.82;102073.34;5061390;28;45373;-63
2023/03/28 04:46:59;;;;;;;;;8.75;6.00;;;;;7.47;46.69;102068.94;5061644;28;45309;-63
2023/03/28 04:49:25;;;;;;;;;6.00;6.00;;;;;7.44;46.75;102068.88;5070342;28;45465;-63
2023/03/28 04:51:51;;;;;;;;;9.00;6.50;;;;;7.40;46.67;102069.66;5081732;28;45335;-63
2023/03/28 04:54:17;;;;;;;;;5.25;5.25;;;;;7.37;46.60;102069.63;5072839;28;45393;-63
2023/03/28 04:56:49;;;;;;;;;8.00;8.00;;;;;7.35;46.75;102068.69;5061597;28;45400;-62
2023/03/28 04:59:14;;;;;;;;;4.75;4.75;;;;;7.28;46.74;102070.31;5044713;28;45420;-63
2023/03/28 05:01:40;;;;;;;;;5.00;4.75;;;;;7.29;46.78;102076.41;5060903;28;45415;-63
2023/03/28 05:04:07;;;;;;;;;5.75;5.75;;;;;7.27;46.80;102078.09;5061346;28;45395;-62
2023/03/28 05:06:32;;;;;;;;;6.00;5.25;;;;;7.25;46.89;102079.81;5043472;28;45495;-63
2023/03/28 05:08:58;;;;;;;;;6.75;4.25;;;;;7.24;46.85;102085.88;5061156;28;45553;-63
2023/03/28 05:11:23;;;;;;;;;5.75;4.25;;;;;7.24;46.78;102088.50;5061100;28;46401;-63
2023/03/28 05:13:48;;;;;;;;;5.50;5.50;;;;;7.24;46.83;102093.75;5061453;28;45247;-63
2023/03/28 05:16:14;;;;;;;;;5.25;5.25;;;;;7.21;46.77;102101.50;5042933;28;45269;-63
2023/03/28 05:18:39;;;;;;;;;4.25;3.25;;;;;7.22;46.77;102101.56;5061334;28;45420;-62
2023/03/28 05:21:05;;;;;;;;;8.00;5.00;;;;;7.19;46.90;102095.38;5042792;28;45860;-62
2023/03/28 05:23:30;;;;;;;;;6.00;5.00;;;;;7.15;46.59;102089.19;5061176;28;45245;-62
2023/03/28 05:25:57;;;;;;;;;5.00;5.00;;;;;7.15;46.91;102103.13;5061026;28;45226;-63
2023/03/28 05:28:23;;;;;;;;;6.00;4.00;;;;;7.15;47.00;102105.75;5061377;28;45253;-63
2023/03/28 05:30:49;;;;;;;;;10.00;7.25;;;;;7.14;46.89;102105.72;5042303;28;47118;-63
2023/03/28 05:33:15;;;;;;;;;9.75;8.75;;;;;7.14;46.67;102100.50;5060939;28;45397;-63
2023/03/28 05:35:40;;;;;;;;;6.25;5.25;;;;;7.12;47.16;102100.47;5060908;28;45309;-63
2023/03/28 05:38:06;;;;;;;;;10.75;6.25;;;;;7.13;47.03;102096.09;5061171;28;45484;-63
2023/03/28 05:40:31;;;;;;;;;6.00;6.00;;;;;7.12;47.01;102087.41;5042212;28;47526;-63
2023/03/28 05:42:56;;;;;;;;;6.00;6.00;;;;;7.13;47.02;102091.78;5060812;28;45335;-63
2023/03/28 05:45:22;;;;;;;;;12.50;6.50;;;;;7.14;47.18;102098.78;5060794;28;45344;-63
2023/03/28 05:47:53;;;;;;;;;8.00;8.00;;;;;7.13;46.99;102091.78;5042335;28;45642;-63
2023/03/28 05:50:19;;;;;;;;;6.75;6.25;;;;;7.15;46.87;102100.53;5076693;28;45905;-63
2023/03/28 05:52:44;;;;;;;;;7.00;5.50;;;;;7.15;47.26;102094.41;5058143;28;45623;-63
2023/03/28 05:55:09;;;;;;;;;9.50;8.50;;;;;7.15;47.06;102105.75;5063994;28;45405;-63
2023/03/28 05:57:35;;;;;;;;;8.00;8.00;;;;;7.18;47.18;102101.44;5060520;28;45331;-63
2023/03/28 06:00:02;;;;;;;;;7.50;5.75;;;;;7.19;47.27;102103.22;5060358;28;46120;-62
2023/03/28 06:02:28;;;;;;;;;8.25;6.00;;;;;7.19;47.20;102108.44;5060210;28;45289;-63
2023/03/28 06:04:54;;;;;;;;;9.50;9.50;;;;;7.19;47.34;102105.84;5042231;28;45459;-62
2023/03/28 06:07:20;;;;;;;;;10.00;8.25;;;;;7.20;47.19;102102.38;5060493;28;45237;-63
2023/03/28 06:09:45;;;;;;;;;8.50;7.25;;;;;7.20;47.51;102099.75;5059525;28;45450;-63
2023/03/28 06:12:11;;;;;;;;;8.50;8.50;;;;;7.21;47.38;102101.50;5042084;28;45214;-62
2023/03/28 06:14:36;;;;;;;;;9.00;7.25;;;;;7.19;47.44;102098.84;5060489;28;45225;-62
2023/03/28 06:17:01;;;;;;;;;7.50;6.00;;;;;7.21;47.68;102106.72;5059692;28;45324;-63
2023/03/28 06:19:27;;;;;;;;;5.75;5.75;;;;;7.20;47.61;102115.44;5060001;28;45364;-63
2023/03/28 06:21:52;;;;;;;;;9.75;8.50;;;;;7.14;47.26;102106.63;5042166;28;45255;-63
2023/03/28 06:24:17;;;;;;;;;10.00;8.50;;;;;7.22;47.47;102114.63;5060195;28;45190;-63
2023/03/28 06:26:43;;;;;;;;;6.00;5.00;;;;;7.20;47.65;102118.94;5060263;28;45634;-63
2023/03/28 06:29:09;;;;;;;;;6.25;4.50;;;;;7.21;47.52;102119.81;5041212;28;45293;-62
2023/03/28 06:31:34;;;;;;;;;6.50;6.50;;;;;7.21;47.35;102117.19;5059811;28;45420;-63
2023/03/28 06:33:59;;;;;;;;;10.00;8.25;;;;;7.17;47.67;102121.50;5059593;28;47969;-63
2023/03/28 06:36:25;;;;;;;;;10.25;7.00;;;;;7.19;47.62;102125.00;5060041;28;45438;-63
2023/03/28 06:38:52;;;;;;;;;9.00;8.25;;;;;7.19;47.79;102118.91;5041351;28;47936;-63
2023/03/28 06:41:17;;;;;;;;;8.25;6.00;;;;;7.20;47.43;102123.28;5041576;28;45281;-63
2023/03/28 06:43:43;;;;;;;;;10.75;10.00;;;;;7.21;47.77;102132.88;5059780;28;45336;-63
2023/03/28 06:46:09;;;;;;;;;8.50;8.50;;;;;7.22;47.66;102124.19;5059670;28;45459;-63
2023/03/28 06:48:35;;;;;;;;;7.75;7.75;;;;;7.23;47.83;102133.81;5061127;28;46474;-63
2023/03/28 06:51:01;;;;;;;;;8.75;7.25;;;;;7.24;47.69;102130.34;5058126;28;45649;-63
2023/03/28 06:53:26;;;;;;;;;9.50;9.00;;;;;7.25;47.78;102132.97;5057472;28;45264;-63
2023/03/28 06:55:52;;;;;;;;;9.00;8.00;;;;;7.23;47.94;102134.69;5039609;28;45364;-63
2023/03/28 06:58:19;;;;;;;;;10.25;8.00;;;;;7.24;47.98;102132.97;5039367;28;46023;-63
2023/03/28 07:00:44;;;;;;;;;8.75;8.00;;;;;7.22;48.16;102122.47;5039272;28;45422;-63
2023/03/28 07:03:10;;;;;;;;;6.50;6.50;;;;;7.24;48.03;102112.03;5039408;28;45542;-62
2023/03/28 07:05:40;;;;;;;;;8.50;6.00;;;;;7.26;48.00;102115.59;5039578;28;45451;-63
2023/03/28 07:08:07;;;;;;;;;7.75;5.75;;;;;7.25;48.20;102114.69;5041853;28;45340;-63
2023/03/28 07:10:34;;;;;;;;;10.25;8.75;;;;;7.26;48.02;102099.91;5042909;28;45403;-63
2023/03/28 07:13:00;;;;;;;;;9.00;8.25;;;;;7.28;48.21;102103.41;5042794;28;45338;-63
2023/03/28 07:15:25;;;;;;;;;6.00;6.00;;;;;7.27;48.13;102091.16;5042668;28;57804;-63
2023/03/28 07:17:52;;;;;;;;;9.50;8.00;;;;;7.29;48.12;102087.72;5042523;28;46212;-63
2023/03/28 07:20:17;;;;;;;;;7.75;7.75;;;;;7.31;48.27;102086.06;5041621;28;45361;-64
2023/03/28 07:22:43;;;;;;;;;7.25;7.00;;;;;7.34;48.18;102076.50;5042628;28;45400;-63
2023/03/28 07:25:08;;;;;;;;;9.00;7.75;;;;;7.35;48.25;102073.06;5042718;28;46257;-63
2023/03/28 07:27:33;;;;;;;;;9.75;7.25;;;;;7.32;48.35;102064.28;5042683;28;45478;-63
2023/03/28 07:29:59;;;;;;;;;10.50;9.50;;;;;7.34;48.31;102059.06;5041397;28;45533;-63
2023/03/28 07:32:24;;;;;;;;;7.75;6.75;;;;;7.37;48.16;102058.25;5042451;28;45462;-63
2023/03/28 07:34:50;;;;;;;;;9.00;7.75;;;;;7.40;48.16;102063.56;5042461;28;49900;-63
2023/03/28 07:37:16;;;;;;;;;9.50;8.50;;;;;7.42;48.34;102077.53;5042378;28;45348;-63
2023/03/28 07:39:42;;;;;;;;;11.50;9.75;;;;;7.41;48.13;102074.03;5042408;28;45404;-63
2023/03/28 07:42:12;;;;;;;;;8.00;8.00;;;;;7.45;48.61;102083.72;5042537;28;45257;-63
2023/03/28 07:44:38;;;;;;;;;6.00;5.00;;;;;7.45;48.47;102090.69;5042656;28;45298;-63
2023/03/28 07:47:04;;;;;;;;;14.00;9.00;;;;;7.46;48.59;102087.22;5042096;28;45470;-63
2023/03/28 07:49:30;;;;;;;;;5.00;4.25;;;;;7.51;48.26;102089.91;5052017;28;45363;-63
2023/03/28 07:51:55;;;;;;;;;5.75;5.75;;;;;7.50;48.10;102086.44;5066557;28;45201;-63
2023/03/28 07:54:21;;;;;;;;;10.00;7.50;;;;;7.57;48.40;102092.66;5071218;28;45484;-63
2023/03/28 07:56:47;;;;;;;;;12.75;9.50;;;;;7.62;48.46;102093.63;5062317;28;45640;-63
2023/03/28 07:59:13;;;;;;;;;9.00;9.00;;;;;7.65;48.45;102101.56;5062385;28;45245;-63
2023/03/28 08:01:43;;;;;;;;;10.75;9.50;;;;;7.68;48.52;102098.97;5062000;28;45201;-63
2023/03/28 08:04:12;;;;;;;;;11.50;10.75;;;;;7.72;48.61;102097.31;5062303;28;45313;-63
2023/03/28 08:06:39;;;;;;;;;11.00;9.50;;;;;7.73;48.61;102094.72;5062031;28;46783;-63
2023/03/28 08:09:07;;;;;;;;;10.25;9.00;;;;;7.80;48.70;102101.84;5043815;28;45348;-63
2023/03/28 08:11:33;;;;;;;;;9.50;6.75;;;;;7.84;48.53;102107.16;5062103;28;45407;-63
2023/03/28 08:14:00;;;;;;;;;8.00;7.00;;;;;7.88;48.51;102117.69;5044034;28;45780;-63
2023/03/28 08:16:25;;;;;;;;;13.25;9.00;;;;;7.92;48.74;102111.69;5061617;28;46050;-63
2023/03/28 08:18:51;;;;;;;;;6.75;6.75;;;;;7.93;48.66;102102.94;5043326;28;45845;-63
2023/03/28 08:21:17;;;;;;;;;10.75;9.50;;;;;7.99;48.76;102096.94;5043885;28;45182;-63
2023/03/28 08:23:43;;;;;;;;;8.75;6.50;;;;;8.03;48.78;102093.53;5062022;28;45439;-63
2023/03/28 08:26:09;;;;;;;;;9.25;7.25;;;;;8.10;48.74;102107.59;5061702;28;45372;-63
2023/03/28 08:28:36;;;;;;;;;12.00;10.00;;;;;8.17;48.68;102103.38;5043606;28;45392;-63
2023/03/28 08:31:08;;;;;;;;;10.25;8.25;;;;;8.22;48.57;102104.34;5061734;28;45309;-63
2023/03/28 08:33:33;;;;;;;;;7.25;7.25;;;;;8.28;48.88;102099.19;5061820;28;45512;-63
2023/03/28 08:35:58;;;;;;;;;11.00;11.00;;;;;8.33;48.51;102100.16;5061533;28;46281;-63
2023/03/28 08:38:24;;;;;;;;;9.75;7.00;;;;;8.42;48.45;102099.44;5043564;28;45497;-63
2023/03/28 08:41:39;;;;;;;;;7.00;5.75;;;;;8.50;48.88;102091.72;5061593;28;45350;-63
2023/03/28 08:44:10;;;;;;;;;8.50;6.75;;;;;8.56;48.64;102089.22;5015935;28;45646;-63
2023/03/28 08:46:41;;;;;;;;;5.25;5.25;;;;;8.61;48.68;102090.16;5043142;28;47263;-63
2023/03/28 08:49:11;;;;;;;;;7.25;6.50;;;;;8.70;48.68;102095.53;5067476;28;45408;-63
2023/03/28 08:51:45;;;;;;;;;4.00;4.00;;;;;8.78;48.60;102095.66;5081684;28;45267;-63
2023/03/28 08:54:32;;;;;;;;;5.50;5.50;;;;;8.84;48.41;102094.88;5055398;28;45474;-63
2023/03/28 08:57:02;;;;;;;;;6.25;4.50;;;;;8.90;48.48;102100.19;5043290;28;45572;-63
2023/03/28 08:59:33;;;;;;;;;5.50;4.75;;;;;8.95;48.55;102082.78;5061376;28;45344;-63
2023/03/28 09:01:59;;;;;;;;;9.00;9.00;;;;;9.03;48.24;102086.41;5042939;28;45329;-63
2023/03/28 09:04:33;;;;;;;;;1.75;1.75;;;;;9.08;48.20;102062.84;5061564;28;45304;-62
2023/03/28 09:07:16;;;;;;;;;3.00;3.00;;;;;9.13;48.25;102070.78;5043030;28;47073;-62
2023/03/28 09:10:11;;;;;;;;;5.00;5.00;;;;;9.19;48.26;102070.88;5061035;28;45220;-63
2023/03/28 09:12:57;;;;;;;;;6.00;4.00;;;;;9.25;47.99;102070.94;5060756;28;45431;-62
2023/03/28 09:15:56;;;;;;;;;2.00;2.00;;;;;9.28;47.70;102052.59;5043179;28;45468;-63
2023/03/28 09:18:29;;;;;;;;;5.00;3.25;;;;;9.32;47.97;102041.31;5061118;28;45424;-63
2023/03/28 09:21:11;;;;;;;;;3.75;3.00;;;;;9.37;47.86;102046.59;5060859;28;45486;-62
2023/03/28 09:23:51;;;;;;;;;3.00;3.00;;;;;9.44;47.73;102051.91;5061122;28;45233;-62
2023/03/28 09:26:22;;;;;;;;;2.25;2.00;;;;;9.48;47.51;102052.84;5065703;28;45553;-63
2023/03/28 09:28:58;;;;;;;;;4.00;4.00;;;;;9.53;47.34;102064.25;5051069;28;45264;-63
2023/03/28 09:31:30;;;;;;;;;3.50;3.50;;;;;9.57;47.38;102052.06;5059693;28;45245;-63
2023/03/28 09:33:58;;;;;;;;;5.00;4.00;;;;;9.64;47.46;102047.78;5060946;28;45391;-63
2023/03/28 09:36:28;;;;;;;;;6.75;4.00;;;;;9.69;47.39;102049.56;5060952;28;45423;-63
2023/03/28 09:38:57;;;;;;;;;5.00;3.75;;;;;9.74;47.05;102047.88;5042278;28;46265;-63
2023/03/28 09:41:51;;;;;;;;;4.50;3.00;;;;;9.82;47.01;102050.56;5042598;28;45332;-63
2023/03/28 09:44:18;;;;;;;;;3.00;2.00;;;;;9.84;46.95;102051.47;5060872;28;45569;-62
2023/03/28 09:46:47;;;;;;;;;5.00;3.00;;;;;9.89;46.92;102046.28;5060310;28;45497;-64
2023/03/28 09:49:17;;;;;;;;;4.75;3.00;;;;;9.93;46.93;102038.44;5067201;28;46551;-62
2023/03/28 09:51:43;;;;;;;;;3.00;3.00;;;;;10.01;47.07;102024.50;5065814;28;45376;-63
2023/03/28 09:54:09;;;;;;;;;3.50;1.75;;;;;10.07;46.92;102014.03;5069484;28;45440;-62
2023/03/28 09:56:38;;;;;;;;;1.50;1.50;;;;;10.08;46.74;102000.91;5042390;28;45264;-63
2023/03/28 09:59:09;;;;;;;;;3.25;2.50;;;;;10.12;46.67;102001.81;5060458;28;45511;-62
2023/03/28 10:01:43;;;;;;;;;3.50;3.00;;;;;10.20;47.05;101996.63;5041838;28;46101;-63
2023/03/28 10:04:16;;;;;;;;;1.50;1.00;;;;;10.26;46.80;101986.16;5060555;28;45306;-63
2023/03/28 10:06:42;;;;;;;;;2.25;2.00;;;;;10.31;46.68;101994.09;5060273;28;45294;-63
2023/03/28 10:09:22;;;;;;;;;5.00;4.00;;;;;10.36;46.77;102000.28;5060140;28;45256;-63
2023/03/28 10:11:53;;;;;;;;;3.00;1.00;;;;;10.42;46.49;102002.09;5060066;28;45321;-63
2023/03/28 10:14:30;;;;;;;;;2.00;2.00;;;;;10.49;46.62;101993.34;5060284;28;45311;-63
2023/03/28 10:17:01;;;;;;;;;5.00;3.75;;;;;10.54;46.70;101983.72;5068287;28;45455;-63
2023/03/28 10:19:32;;;;;;;;;4.50;2.00;;;;;10.59;46.47;101983.78;5079901;28;45254;-63
2023/03/28 10:22:04;;;;;;;;;3.25;3.25;;;;;10.67;46.39;101979.44;5080376;28;45308;-63
2023/03/28 10:24:31;;;;;;;;;2.00;2.00;;;;;10.75;46.57;101982.09;5061747;28;45359;-64
2023/03/28 10:27:04;;;;;;;;;3.25;1.50;;;;;10.79;46.33;101976.88;5080328;28;45342;-64
2023/03/28 10:29:30;;;;;;;;;3.00;2.00;;;;;10.86;46.28;101973.38;5079989;28;46309;-65
2023/03/28 10:31:55;;;;;;;;;4.00;4.00;;;;;10.97;46.05;101981.34;5079843;28;45312;-64
2023/03/28 10:34:30;;;;;;;;;4.00;2.00;;;;;11.04;46.02;101967.34;5080207;28;45325;-62
2023/03/28 10:36:56;;;;;;;;;1.00;1.00;;;;;11.11;46.18;101970.84;5080384;28;45332;-64
2023/03/28 10:39:25;;;;;;;;;2.00;2.00;;;;;11.17;46.06;101968.25;5079605;28;46081;-62
2023/03/28 10:41:56;;;;;;;;;3.00;3.00;;;;;11.21;46.15;101975.25;5079642;28;45400;-64
2023/03/28 10:44:30;;;;;;;;;5.00;3.00;;;;;11.26;46.00;101966.50;5073208;28;45349;-64
2023/03/28 10:47:04;;;;;;;;;4.50;3.25;;;;;11.31;46.15;101967.41;5059473;28;45319;-62
2023/03/28 10:49:44;;;;;;;;;2.00;2.00;;;;;11.33;46.16;101963.91;5068600;28;45534;-62
2023/03/28 10:52:23;;;;;;;;;2.00;2.00;;;;;11.36;45.82;101965.66;5061619;28;45426;-64
2023/03/28 10:54:56;;;;;;;;;2.50;2.50;;;;;11.42;45.97;101967.41;5066406;28;45354;-62
2023/03/28 10:57:49;;;;;;;;;3.00;3.00;;;;;11.41;46.09;101965.66;5059691;28;45186;-65
2023/03/28 11:00:22;;;;;;;;;3.25;3.00;;;;;11.44;45.77;101956.00;5041204;28;47388;-64
2023/03/28 11:02:53;;;;;;;;;4.50;4.00;;;;;11.47;45.70;101945.50;5059298;28;45249;-64
2023/03/28 11:05:28;;;;;;;;;5.00;5.00;;;;;11.50;45.72;101939.38;5059661;28;45237;-64
2023/03/28 11:08:31;;;;;;;;;3.25;3.25;;;;;11.53;45.73;101944.63;5041324;28;45473;-64
2023/03/28 11:11:03;;;;;;;;;3.00;3.00;;;;;11.52;45.82;101934.97;5059090;28;45180;-64
2023/03/28 11:13:47;;;;;;;;;4.00;3.75;;;;;11.54;45.59;101918.28;5041542;28;45619;-64
2023/03/28 11:16:29;;;;;;;;;4.25;3.50;;;;;11.54;45.59;101905.13;5041023;28;45389;-64
2023/03/28 11:19:08;;;;;;;;;5.25;4.00;;;;;11.56;45.70;101915.69;5059248;28;45246;-64
2023/03/28 11:22:01;;;;;;;;;4.50;4.50;;;;;11.56;45.60;101907.78;5059222;28;45316;-64
2023/03/28 11:24:34;;;;;;;;;4.75;3.25;;;;;11.59;45.59;101909.53;5058255;28;45290;-64
2023/03/28 11:27:21;;;;;;;;;4.00;3.75;;;;;11.60;45.77;101892.88;5059682;28;45373;-64
2023/03/28 11:29:52;;;;;;;;;4.25;3.00;;;;;11.60;45.48;101898.13;5048661;28;45423;-64
2023/03/28 11:32:28;;;;;;;;;3.50;2.25;;;;;11.63;45.67;101885.81;5060738;28;47169;-64
2023/03/28 11:35:13;;;;;;;;;4.00;2.75;;;;;11.67;45.31;101889.34;5079451;28;45372;-63
2023/03/28 11:38:21;;;;;;;;;3.00;3.00;;;;;11.66;45.55;101884.94;5079497;28;45289;-64
2023/03/28 11:41:01;;;;;;;;;4.00;4.00;;;;;11.80;45.58;101908.66;5044386;28;45527;-64
2023/03/28 11:43:50;;;;;;;;;3.00;3.00;;;;;11.90;45.62;101901.59;5079283;28;45399;-64
2023/03/28 11:46:27;;;;;;;;;5.50;3.25;;;;;11.94;45.59;101896.34;5079239;28;45479;-64